sensor_id;sensor_type;location;lat;lon;timestamp;P1;durP1;ratioP1;P2;durP2;ratioP2
26098;SDS011;13860;52.370;6.764;2022-08-01T00:01:32;8.40;;;5.43;;
26098;SDS011;13860;52.370;6.764;2022-08-01T00:04:37;12.65;;;5.85;;
26098;SDS011;13860;52.370;6.764;2022-08-01T00:07:43;12.38;;;5.15;;
26098;SDS011;13860;52.370;6.764;2022-08-01T00:10:48;10.43;;;5.90;;
26098;SDS011;13860;52.370;6.764;2022-08-01T00:13:53;6.53;;;4.88;;
26098;SDS011;13860;52.370;6.764;2022-08-01T00:17:01;12.35;;;5.63;;
26098;SDS011;13860;52.370;6.764;2022-08-01T00:20:09;13.15;;;4.85;;
26098;SDS011;13860;52.370;6.764;2022-08-01T00:23:16;11.75;;;5.68;;
26098;SDS011;13860;52.370;6.764;2022-08-01T00:26:21;9.50;;;5.28;;
26098;SDS011;13860;52.370;6.764;2022-08-01T00:29:26;7.80;;;5.20;;
26098;SDS011;13860;52.370;6.764;2022-08-01T00:32:53;8.57;;;4.93;;
26098;SDS011;13860;52.370;6.764;2022-08-01T00:35:58;8.25;;;5.18;;
26098;SDS011;13860;52.370;6.764;2022-08-01T00:39:03;9.15;;;4.93;;
26098;SDS011;13860;52.370;6.764;2022-08-01T00:42:09;8.43;;;4.32;;
26098;SDS011;13860;52.370;6.764;2022-08-01T00:45:15;8.73;;;4.35;;
26098;SDS011;13860;52.370;6.764;2022-08-01T00:48:23;7.85;;;5.03;;
26098;SDS011;13860;52.370;6.764;2022-08-01T00:51:28;12.05;;;4.10;;
26098;SDS011;13860;52.370;6.764;2022-08-01T00:54:35;6.20;;;4.18;;
26098;SDS011;13860;52.370;6.764;2022-08-01T00:57:40;6.57;;;4.13;;
26098;SDS011;13860;52.370;6.764;2022-08-01T01:01:05;9.35;;;4.38;;
26098;SDS011;13860;52.370;6.764;2022-08-01T01:04:15;10.32;;;3.67;;
26098;SDS011;13860;52.370;6.764;2022-08-01T01:07:21;9.63;;;4.35;;
26098;SDS011;13860;52.370;6.764;2022-08-01T01:10:37;5.10;;;3.92;;
26098;SDS011;13860;52.370;6.764;2022-08-01T01:13:49;7.13;;;4.75;;
26098;SDS011;13860;52.370;6.764;2022-08-01T01:17:01;8.43;;;4.10;;
26098;SDS011;13860;52.370;6.764;2022-08-01T01:20:12;7.93;;;4.13;;
26098;SDS011;13860;52.370;6.764;2022-08-01T01:23:28;7.10;;;3.92;;
26098;SDS011;13860;52.370;6.764;2022-08-01T01:26:50;7.20;;;4.00;;
26098;SDS011;13860;52.370;6.764;2022-08-01T01:30:02;8.02;;;4.10;;
26098;SDS011;13860;52.370;6.764;2022-08-01T01:33:08;5.10;;;3.63;;
26098;SDS011;13860;52.370;6.764;2022-08-01T01:36:15;4.63;;;3.50;;
26098;SDS011;13860;52.370;6.764;2022-08-01T01:39:22;4.53;;;3.00;;
26098;SDS011;13860;52.370;6.764;2022-08-01T01:42:29;5.50;;;3.40;;
26098;SDS011;13860;52.370;6.764;2022-08-01T01:45:38;4.65;;;3.05;;
26098;SDS011;13860;52.370;6.764;2022-08-01T01:48:45;4.03;;;3.30;;
26098;SDS011;13860;52.370;6.764;2022-08-01T01:51:51;4.97;;;2.95;;
26098;SDS011;13860;52.370;6.764;2022-08-01T01:55:04;4.45;;;3.65;;
26098;SDS011;13860;52.370;6.764;2022-08-01T01:58:12;4.85;;;3.33;;
26098;SDS011;13860;52.370;6.764;2022-08-01T02:01:21;6.03;;;3.90;;
26098;SDS011;13860;52.370;6.764;2022-08-01T02:04:48;7.85;;;3.65;;
26098;SDS011;13860;52.370;6.764;2022-08-01T02:07:54;8.20;;;4.20;;
26098;SDS011;13860;52.370;6.764;2022-08-01T02:11:01;6.45;;;4.30;;
26098;SDS011;13860;52.370;6.764;2022-08-01T02:14:19;7.25;;;3.75;;
26098;SDS011;13860;52.370;6.764;2022-08-01T02:17:28;5.50;;;4.00;;
26098;SDS011;13860;52.370;6.764;2022-08-01T02:20:35;8.15;;;3.90;;
26098;SDS011;13860;52.370;6.764;2022-08-01T02:23:42;5.32;;;4.40;;
26098;SDS011;13860;52.370;6.764;2022-08-01T02:26:49;6.53;;;4.40;;
26098;SDS011;13860;52.370;6.764;2022-08-01T02:29:58;6.10;;;4.18;;
26098;SDS011;13860;52.370;6.764;2022-08-01T02:33:11;6.60;;;3.95;;
26098;SDS011;13860;52.370;6.764;2022-08-01T02:36:21;7.30;;;3.80;;
26098;SDS011;13860;52.370;6.764;2022-08-01T02:39:35;4.75;;;3.80;;
26098;SDS011;13860;52.370;6.764;2022-08-01T02:42:43;8.38;;;4.13;;
26098;SDS011;13860;52.370;6.764;2022-08-01T02:45:51;9.18;;;4.10;;
26098;SDS011;13860;52.370;6.764;2022-08-01T02:49:02;5.72;;;3.80;;
26098;SDS011;13860;52.370;6.764;2022-08-01T02:52:11;6.28;;;3.88;;
26098;SDS011;13860;52.370;6.764;2022-08-01T02:55:18;5.75;;;3.72;;
26098;SDS011;13860;52.370;6.764;2022-08-01T02:58:25;6.30;;;4.10;;
26098;SDS011;13860;52.370;6.764;2022-08-01T03:01:32;6.60;;;4.25;;
26098;SDS011;13860;52.370;6.764;2022-08-01T03:04:43;6.22;;;4.28;;
26098;SDS011;13860;52.370;6.764;2022-08-01T03:07:55;9.63;;;4.40;;
26098;SDS011;13860;52.370;6.764;2022-08-01T03:11:04;6.80;;;4.13;;
26098;SDS011;13860;52.370;6.764;2022-08-01T03:14:11;5.53;;;4.13;;
26098;SDS011;13860;52.370;6.764;2022-08-01T03:17:17;6.25;;;4.20;;
26098;SDS011;13860;52.370;6.764;2022-08-01T03:20:26;6.53;;;4.45;;
26098;SDS011;13860;52.370;6.764;2022-08-01T03:23:33;5.80;;;4.07;;
26098;SDS011;13860;52.370;6.764;2022-08-01T03:26:40;4.72;;;3.92;;
26098;SDS011;13860;52.370;6.764;2022-08-01T03:29:46;6.07;;;4.15;;
26098;SDS011;13860;52.370;6.764;2022-08-01T03:32:52;6.38;;;4.28;;
26098;SDS011;13860;52.370;6.764;2022-08-01T03:36:00;7.03;;;4.15;;
26098;SDS011;13860;52.370;6.764;2022-08-01T03:39:09;5.25;;;4.00;;
26098;SDS011;13860;52.370;6.764;2022-08-01T03:42:15;6.95;;;4.78;;
26098;SDS011;13860;52.370;6.764;2022-08-01T03:45:25;8.95;;;4.20;;
26098;SDS011;13860;52.370;6.764;2022-08-01T03:48:32;5.60;;;4.32;;
26098;SDS011;13860;52.370;6.764;2022-08-01T03:51:42;9.02;;;4.45;;
26098;SDS011;13860;52.370;6.764;2022-08-01T03:54:49;6.38;;;4.93;;
26098;SDS011;13860;52.370;6.764;2022-08-01T03:57:57;8.77;;;4.03;;
26098;SDS011;13860;52.370;6.764;2022-08-01T04:01:10;6.20;;;4.72;;
26098;SDS011;13860;52.370;6.764;2022-08-01T04:04:16;7.68;;;5.10;;
26098;SDS011;13860;52.370;6.764;2022-08-01T04:07:25;7.97;;;5.07;;
26098;SDS011;13860;52.370;6.764;2022-08-01T04:10:31;6.85;;;5.20;;
26098;SDS011;13860;52.370;6.764;2022-08-01T04:13:36;6.50;;;4.93;;
26098;SDS011;13860;52.370;6.764;2022-08-01T04:16:45;6.90;;;5.13;;
26098;SDS011;13860;52.370;6.764;2022-08-01T04:19:50;8.40;;;4.80;;
26098;SDS011;13860;52.370;6.764;2022-08-01T04:22:57;6.43;;;5.00;;
26098;SDS011;13860;52.370;6.764;2022-08-01T04:26:02;7.72;;;5.22;;
26098;SDS011;13860;52.370;6.764;2022-08-01T04:29:09;10.60;;;4.75;;
26098;SDS011;13860;52.370;6.764;2022-08-01T04:32:16;10.25;;;4.43;;
26098;SDS011;13860;52.370;6.764;2022-08-01T04:35:25;6.05;;;4.40;;
26098;SDS011;13860;52.370;6.764;2022-08-01T04:38:55;7.78;;;3.78;;
26098;SDS011;13860;52.370;6.764;2022-08-01T04:42:04;5.18;;;3.63;;
26098;SDS011;13860;52.370;6.764;2022-08-01T04:45:10;4.18;;;3.17;;
26098;SDS011;13860;52.370;6.764;2022-08-01T04:48:16;6.60;;;3.50;;
26098;SDS011;13860;52.370;6.764;2022-08-01T04:51:23;4.07;;;3.38;;
26098;SDS011;13860;52.370;6.764;2022-08-01T04:54:31;3.90;;;2.97;;
26098;SDS011;13860;52.370;6.764;2022-08-01T04:57:38;7.60;;;2.92;;
26098;SDS011;13860;52.370;6.764;2022-08-01T05:00:46;4.47;;;3.35;;
26098;SDS011;13860;52.370;6.764;2022-08-01T05:03:52;5.45;;;3.20;;
26098;SDS011;13860;52.370;6.764;2022-08-01T05:06:56;8.02;;;3.80;;
26098;SDS011;13860;52.370;6.764;2022-08-01T05:10:05;4.28;;;3.20;;
26098;SDS011;13860;52.370;6.764;2022-08-01T05:13:10;4.00;;;3.35;;
26098;SDS011;13860;52.370;6.764;2022-08-01T05:16:15;8.60;;;3.63;;
26098;SDS011;13860;52.370;6.764;2022-08-01T05:19:21;5.25;;;3.80;;
26098;SDS011;13860;52.370;6.764;2022-08-01T05:22:26;5.88;;;3.58;;
26098;SDS011;13860;52.370;6.764;2022-08-01T05:25:34;5.13;;;3.72;;
26098;SDS011;13860;52.370;6.764;2022-08-01T05:28:58;4.85;;;3.80;;
26098;SDS011;13860;52.370;6.764;2022-08-01T05:32:04;4.65;;;3.38;;
26098;SDS011;13860;52.370;6.764;2022-08-01T05:35:10;5.32;;;3.20;;
26098;SDS011;13860;52.370;6.764;2022-08-01T05:38:15;4.53;;;3.13;;
26098;SDS011;13860;52.370;6.764;2022-08-01T05:41:25;5.18;;;3.50;;
26098;SDS011;13860;52.370;6.764;2022-08-01T05:44:30;5.82;;;3.40;;
26098;SDS011;13860;52.370;6.764;2022-08-01T05:47:35;7.90;;;4.15;;
26098;SDS011;13860;52.370;6.764;2022-08-01T05:50:43;4.43;;;3.58;;
26098;SDS011;13860;52.370;6.764;2022-08-01T05:53:49;6.32;;;3.90;;
26098;SDS011;13860;52.370;6.764;2022-08-01T05:56:56;12.93;;;3.50;;
26098;SDS011;13860;52.370;6.764;2022-08-01T06:00:03;6.45;;;3.58;;
26098;SDS011;13860;52.370;6.764;2022-08-01T06:03:12;3.55;;;2.80;;
26098;SDS011;13860;52.370;6.764;2022-08-01T06:06:18;4.97;;;2.97;;
26098;SDS011;13860;52.370;6.764;2022-08-01T06:09:26;3.70;;;2.85;;
26098;SDS011;13860;52.370;6.764;2022-08-01T06:12:35;5.15;;;2.47;;
26098;SDS011;13860;52.370;6.764;2022-08-01T06:15:40;5.90;;;1.85;;
26098;SDS011;13860;52.370;6.764;2022-08-01T06:18:45;5.38;;;1.80;;
26098;SDS011;13860;52.370;6.764;2022-08-01T06:21:56;3.28;;;1.70;;
26098;SDS011;13860;52.370;6.764;2022-08-01T06:25:01;4.57;;;1.48;;
26098;SDS011;13860;52.370;6.764;2022-08-01T06:28:10;3.35;;;1.30;;
26098;SDS011;13860;52.370;6.764;2022-08-01T06:31:15;7.63;;;2.45;;
26098;SDS011;13860;52.370;6.764;2022-08-01T06:34:29;6.68;;;1.88;;
26098;SDS011;13860;52.370;6.764;2022-08-01T06:37:37;5.18;;;1.80;;
26098;SDS011;13860;52.370;6.764;2022-08-01T06:40:42;7.05;;;1.85;;
26098;SDS011;13860;52.370;6.764;2022-08-01T06:43:50;4.97;;;1.45;;
26098;SDS011;13860;52.370;6.764;2022-08-01T06:46:55;7.93;;;1.85;;
26098;SDS011;13860;52.370;6.764;2022-08-01T06:50:00;8.18;;;1.88;;
26098;SDS011;13860;52.370;6.764;2022-08-01T06:53:05;3.80;;;1.60;;
26098;SDS011;13860;52.370;6.764;2022-08-01T06:56:10;8.43;;;1.95;;
26098;SDS011;13860;52.370;6.764;2022-08-01T06:59:17;8.52;;;1.95;;
26098;SDS011;13860;52.370;6.764;2022-08-01T07:02:22;6.53;;;1.80;;
26098;SDS011;13860;52.370;6.764;2022-08-01T07:05:28;3.67;;;1.70;;
26098;SDS011;13860;52.370;6.764;2022-08-01T07:08:33;5.97;;;1.92;;
26098;SDS011;13860;52.370;6.764;2022-08-01T07:11:39;6.47;;;1.92;;
26098;SDS011;13860;52.370;6.764;2022-08-01T07:14:47;5.82;;;1.80;;
26098;SDS011;13860;52.370;6.764;2022-08-01T07:17:53;3.08;;;1.88;;
26098;SDS011;13860;52.370;6.764;2022-08-01T07:20:58;5.35;;;1.65;;
26098;SDS011;13860;52.370;6.764;2022-08-01T07:24:05;5.90;;;1.90;;
26098;SDS011;13860;52.370;6.764;2022-08-01T07:27:13;6.10;;;1.70;;
26098;SDS011;13860;52.370;6.764;2022-08-01T07:30:29;11.52;;;2.13;;
26098;SDS011;13860;52.370;6.764;2022-08-01T07:33:34;5.55;;;1.67;;
26098;SDS011;13860;52.370;6.764;2022-08-01T07:36:49;7.88;;;1.70;;
26098;SDS011;13860;52.370;6.764;2022-08-01T07:39:55;7.47;;;2.05;;
26098;SDS011;13860;52.370;6.764;2022-08-01T07:43:00;7.60;;;1.65;;
26098;SDS011;13860;52.370;6.764;2022-08-01T07:46:07;10.43;;;2.33;;
26098;SDS011;13860;52.370;6.764;2022-08-01T07:49:12;6.53;;;2.15;;
26098;SDS011;13860;52.370;6.764;2022-08-01T07:52:18;7.38;;;1.77;;
26098;SDS011;13860;52.370;6.764;2022-08-01T07:55:23;6.82;;;2.20;;
26098;SDS011;13860;52.370;6.764;2022-08-01T07:58:28;9.57;;;1.90;;
26098;SDS011;13860;52.370;6.764;2022-08-01T08:01:36;4.18;;;1.75;;
26098;SDS011;13860;52.370;6.764;2022-08-01T08:04:41;6.97;;;2.22;;
26098;SDS011;13860;52.370;6.764;2022-08-01T08:07:50;10.10;;;2.67;;
26098;SDS011;13860;52.370;6.764;2022-08-01T08:10:55;7.97;;;2.17;;
26098;SDS011;13860;52.370;6.764;2022-08-01T08:14:00;9.82;;;2.22;;
26098;SDS011;13860;52.370;6.764;2022-08-01T08:17:07;13.85;;;2.60;;
26098;SDS011;13860;52.370;6.764;2022-08-01T08:20:12;8.27;;;2.05;;
26098;SDS011;13860;52.370;6.764;2022-08-01T08:23:17;9.35;;;2.35;;
26098;SDS011;13860;52.370;6.764;2022-08-01T08:26:44;13.73;;;2.20;;
26098;SDS011;13860;52.370;6.764;2022-08-01T08:29:52;11.85;;;1.92;;
26098;SDS011;13860;52.370;6.764;2022-08-01T08:33:00;9.02;;;2.22;;
26098;SDS011;13860;52.370;6.764;2022-08-01T08:36:14;7.45;;;1.98;;
26098;SDS011;13860;52.370;6.764;2022-08-01T08:39:19;14.45;;;2.20;;
26098;SDS011;13860;52.370;6.764;2022-08-01T08:42:24;13.13;;;2.15;;
26098;SDS011;13860;52.370;6.764;2022-08-01T08:45:29;8.20;;;1.95;;
26098;SDS011;13860;52.370;6.764;2022-08-01T08:48:58;11.02;;;2.00;;
26098;SDS011;13860;52.370;6.764;2022-08-01T08:52:06;15.02;;;2.95;;
26098;SDS011;13860;52.370;6.764;2022-08-01T08:55:12;10.05;;;2.08;;
26098;SDS011;13860;52.370;6.764;2022-08-01T08:58:20;9.38;;;2.10;;
26098;SDS011;13860;52.370;6.764;2022-08-01T09:01:32;13.23;;;2.38;;
26098;SDS011;13860;52.370;6.764;2022-08-01T09:04:40;15.63;;;2.05;;
26098;SDS011;13860;52.370;6.764;2022-08-01T09:07:45;14.35;;;2.38;;
26098;SDS011;13860;52.370;6.764;2022-08-01T09:10:51;11.60;;;2.28;;
26098;SDS011;13860;52.370;6.764;2022-08-01T09:14:06;16.13;;;2.50;;
26098;SDS011;13860;52.370;6.764;2022-08-01T09:17:15;7.70;;;2.05;;
26098;SDS011;13860;52.370;6.764;2022-08-01T09:20:24;9.65;;;1.45;;
26098;SDS011;13860;52.370;6.764;2022-08-01T09:23:32;10.57;;;1.88;;
26098;SDS011;13860;52.370;6.764;2022-08-01T09:26:55;6.55;;;1.65;;
26098;SDS011;13860;52.370;6.764;2022-08-01T09:30:08;7.57;;;1.98;;
26098;SDS011;13860;52.370;6.764;2022-08-01T09:33:24;13.05;;;2.08;;
26098;SDS011;13860;52.370;6.764;2022-08-01T09:36:43;13.38;;;2.35;;
26098;SDS011;13860;52.370;6.764;2022-08-01T09:39:55;13.43;;;2.30;;
26098;SDS011;13860;52.370;6.764;2022-08-01T09:43:10;11.77;;;2.47;;
26098;SDS011;13860;52.370;6.764;2022-08-01T09:46:15;16.75;;;2.50;;
26098;SDS011;13860;52.370;6.764;2022-08-01T09:49:27;11.18;;;1.95;;
26098;SDS011;13860;52.370;6.764;2022-08-01T09:52:55;11.80;;;1.80;;
26098;SDS011;13860;52.370;6.764;2022-08-01T09:56:08;9.68;;;1.88;;
26098;SDS011;13860;52.370;6.764;2022-08-01T09:59:14;9.40;;;1.90;;
26098;SDS011;13860;52.370;6.764;2022-08-01T10:02:27;6.70;;;1.98;;
26098;SDS011;13860;52.370;6.764;2022-08-01T10:05:35;13.85;;;1.92;;
26098;SDS011;13860;52.370;6.764;2022-08-01T10:08:53;12.05;;;1.75;;
26098;SDS011;13860;52.370;6.764;2022-08-01T10:11:58;9.70;;;2.35;;
26098;SDS011;13860;52.370;6.764;2022-08-01T10:15:04;12.48;;;2.20;;
26098;SDS011;13860;52.370;6.764;2022-08-01T10:18:11;12.48;;;2.00;;
26098;SDS011;13860;52.370;6.764;2022-08-01T10:21:27;14.20;;;1.77;;
26098;SDS011;13860;52.370;6.764;2022-08-01T10:24:56;10.82;;;2.15;;
26098;SDS011;13860;52.370;6.764;2022-08-01T10:28:02;12.07;;;1.85;;
26098;SDS011;13860;52.370;6.764;2022-08-01T10:31:18;8.20;;;1.65;;
26098;SDS011;13860;52.370;6.764;2022-08-01T10:34:31;8.48;;;1.60;;
26098;SDS011;13860;52.370;6.764;2022-08-01T10:37:41;13.30;;;1.83;;
26098;SDS011;13860;52.370;6.764;2022-08-01T10:40:55;10.38;;;2.08;;
26098;SDS011;13860;52.370;6.764;2022-08-01T10:47:13;5.82;;;1.80;;
26098;SDS011;13860;52.370;6.764;2022-08-01T10:50:42;13.05;;;1.95;;
26098;SDS011;13860;52.370;6.764;2022-08-01T10:53:51;8.95;;;1.77;;
26098;SDS011;13860;52.370;6.764;2022-08-01T10:57:03;12.77;;;2.40;;
26098;SDS011;13860;52.370;6.764;2022-08-01T11:00:12;10.93;;;1.95;;
26098;SDS011;13860;52.370;6.764;2022-08-01T11:03:31;9.57;;;1.65;;
26098;SDS011;13860;52.370;6.764;2022-08-01T11:07:03;9.23;;;2.20;;
26098;SDS011;13860;52.370;6.764;2022-08-01T11:10:16;9.20;;;1.85;;
26098;SDS011;13860;52.370;6.764;2022-08-01T11:20:54;13.57;;;2.05;;
26098;SDS011;13860;52.370;6.764;2022-08-01T11:28:10;8.93;;;2.00;;
26098;SDS011;13860;52.370;6.764;2022-08-01T11:31:35;9.13;;;1.88;;
26098;SDS011;13860;52.370;6.764;2022-08-01T11:34:55;14.35;;;2.28;;
26098;SDS011;13860;52.370;6.764;2022-08-01T11:41:29;8.98;;;1.70;;
26098;SDS011;13860;52.370;6.764;2022-08-01T11:44:47;9.98;;;1.77;;
26098;SDS011;13860;52.370;6.764;2022-08-01T11:47:53;9.32;;;1.85;;
26098;SDS011;13860;52.370;6.764;2022-08-01T11:51:01;8.82;;;2.20;;
26098;SDS011;13860;52.370;6.764;2022-08-01T11:54:08;11.73;;;2.10;;
26098;SDS011;13860;52.370;6.764;2022-08-01T11:57:36;7.72;;;1.73;;
26098;SDS011;13860;52.370;6.764;2022-08-01T12:00:41;7.60;;;1.75;;
26098;SDS011;13860;52.370;6.764;2022-08-01T12:03:55;11.18;;;1.80;;
26098;SDS011;13860;52.370;6.764;2022-08-01T12:07:13;11.70;;;1.80;;
26098;SDS011;13860;52.370;6.764;2022-08-01T12:10:19;7.53;;;1.70;;
26098;SDS011;13860;52.370;6.764;2022-08-01T12:13:25;12.73;;;1.80;;
26098;SDS011;13860;52.370;6.764;2022-08-01T12:16:31;9.93;;;2.22;;
26098;SDS011;13860;52.370;6.764;2022-08-01T12:19:37;10.98;;;1.90;;
26098;SDS011;13860;52.370;6.764;2022-08-01T12:22:45;8.60;;;2.10;;
26098;SDS011;13860;52.370;6.764;2022-08-01T12:25:50;8.32;;;2.22;;
26098;SDS011;13860;52.370;6.764;2022-08-01T12:28:56;8.77;;;1.95;;
26098;SDS011;13860;52.370;6.764;2022-08-01T12:32:01;6.35;;;1.45;;
26098;SDS011;13860;52.370;6.764;2022-08-01T12:35:09;6.55;;;1.67;;
26098;SDS011;13860;52.370;6.764;2022-08-01T12:38:21;6.65;;;1.60;;
26098;SDS011;13860;52.370;6.764;2022-08-01T12:41:28;12.05;;;2.00;;
26098;SDS011;13860;52.370;6.764;2022-08-01T12:44:33;7.25;;;1.75;;
26098;SDS011;13860;52.370;6.764;2022-08-01T12:47:39;8.32;;;1.77;;
26098;SDS011;13860;52.370;6.764;2022-08-01T12:50:46;5.28;;;1.15;;
26098;SDS011;13860;52.370;6.764;2022-08-01T12:54:00;10.80;;;1.63;;
26098;SDS011;13860;52.370;6.764;2022-08-01T12:57:09;9.65;;;2.08;;
26098;SDS011;13860;52.370;6.764;2022-08-01T13:00:27;8.73;;;1.55;;
26098;SDS011;13860;52.370;6.764;2022-08-01T13:03:32;7.00;;;1.33;;
26098;SDS011;13860;52.370;6.764;2022-08-01T13:06:41;6.80;;;1.27;;
26098;SDS011;13860;52.370;6.764;2022-08-01T13:09:51;8.10;;;1.95;;
26098;SDS011;13860;52.370;6.764;2022-08-01T13:12:57;4.40;;;1.20;;
26098;SDS011;13860;52.370;6.764;2022-08-01T13:16:05;7.68;;;1.52;;
26098;SDS011;13860;52.370;6.764;2022-08-01T13:19:45;11.88;;;2.10;;
26098;SDS011;13860;52.370;6.764;2022-08-01T13:23:12;11.77;;;1.60;;
26098;SDS011;13860;52.370;6.764;2022-08-01T13:26:42;8.63;;;1.48;;
26098;SDS011;13860;52.370;6.764;2022-08-01T13:29:48;4.97;;;1.77;;
26098;SDS011;13860;52.370;6.764;2022-08-01T13:36:18;7.40;;;1.58;;
26098;SDS011;13860;52.370;6.764;2022-08-01T13:39:31;8.63;;;1.20;;
26098;SDS011;13860;52.370;6.764;2022-08-01T13:42:49;3.95;;;1.40;;
26098;SDS011;13860;52.370;6.764;2022-08-01T13:45:54;12.32;;;1.52;;
26098;SDS011;13860;52.370;6.764;2022-08-01T13:49:07;5.63;;;1.40;;
26098;SDS011;13860;52.370;6.764;2022-08-01T13:52:20;10.18;;;2.17;;
26098;SDS011;13860;52.370;6.764;2022-08-01T13:55:25;5.40;;;1.30;;
26098;SDS011;13860;52.370;6.764;2022-08-01T13:58:38;5.03;;;1.30;;
26098;SDS011;13860;52.370;6.764;2022-08-01T14:01:43;9.50;;;1.75;;
26098;SDS011;13860;52.370;6.764;2022-08-01T14:04:49;2.80;;;1.17;;
26098;SDS011;13860;52.370;6.764;2022-08-01T14:07:56;3.85;;;1.17;;
26098;SDS011;13860;52.370;6.764;2022-08-01T14:11:01;6.45;;;1.42;;
26098;SDS011;13860;52.370;6.764;2022-08-01T14:14:10;3.85;;;1.13;;
26098;SDS011;13860;52.370;6.764;2022-08-01T14:17:16;6.65;;;1.80;;
26098;SDS011;13860;52.370;6.764;2022-08-01T14:20:22;8.70;;;1.75;;
26098;SDS011;13860;52.370;6.764;2022-08-01T14:23:27;7.85;;;1.15;;
26098;SDS011;13860;52.370;6.764;2022-08-01T14:26:32;7.35;;;1.42;;
26098;SDS011;13860;52.370;6.764;2022-08-01T14:29:40;5.65;;;1.50;;
26098;SDS011;13860;52.370;6.764;2022-08-01T14:33:03;4.90;;;1.00;;
26098;SDS011;13860;52.370;6.764;2022-08-01T14:36:12;4.07;;;1.40;;
26098;SDS011;13860;52.370;6.764;2022-08-01T14:39:31;8.63;;;1.45;;
26098;SDS011;13860;52.370;6.764;2022-08-01T14:42:37;5.80;;;1.13;;
26098;SDS011;13860;52.370;6.764;2022-08-01T14:45:47;5.53;;;1.48;;
26098;SDS011;13860;52.370;6.764;2022-08-01T14:48:53;5.57;;;1.67;;
26098;SDS011;13860;52.370;6.764;2022-08-01T14:51:58;4.85;;;0.95;;
26098;SDS011;13860;52.370;6.764;2022-08-01T14:55:05;6.25;;;1.25;;
26098;SDS011;13860;52.370;6.764;2022-08-01T14:58:11;6.28;;;0.98;;
26098;SDS011;13860;52.370;6.764;2022-08-01T15:01:21;5.00;;;1.50;;
26098;SDS011;13860;52.370;6.764;2022-08-01T15:04:29;7.43;;;1.45;;
26098;SDS011;13860;52.370;6.764;2022-08-01T15:07:35;4.82;;;1.33;;
26098;SDS011;13860;52.370;6.764;2022-08-01T15:10:54;10.82;;;1.55;;
26098;SDS011;13860;52.370;6.764;2022-08-01T15:13:59;8.88;;;1.52;;
26098;SDS011;13860;52.370;6.764;2022-08-01T15:17:20;6.05;;;1.67;;
26098;SDS011;13860;52.370;6.764;2022-08-01T15:20:26;5.88;;;1.30;;
26098;SDS011;13860;52.370;6.764;2022-08-01T15:23:32;7.63;;;1.38;;
26098;SDS011;13860;52.370;6.764;2022-08-01T15:26:40;2.08;;;1.33;;
26098;SDS011;13860;52.370;6.764;2022-08-01T15:29:46;8.02;;;1.25;;
26098;SDS011;13860;52.370;6.764;2022-08-01T15:32:57;5.82;;;1.50;;
26098;SDS011;13860;52.370;6.764;2022-08-01T15:36:03;6.93;;;1.05;;
26098;SDS011;13860;52.370;6.764;2022-08-01T15:39:15;4.90;;;1.67;;
26098;SDS011;13860;52.370;6.764;2022-08-01T15:42:23;7.07;;;1.60;;
26098;SDS011;13860;52.370;6.764;2022-08-01T15:45:28;3.90;;;1.30;;
26098;SDS011;13860;52.370;6.764;2022-08-01T15:48:52;4.93;;;1.30;;
26098;SDS011;13860;52.370;6.764;2022-08-01T15:51:57;5.53;;;1.30;;
26098;SDS011;13860;52.370;6.764;2022-08-01T15:55:03;4.00;;;1.25;;
26098;SDS011;13860;52.370;6.764;2022-08-01T15:58:09;5.78;;;1.27;;
26098;SDS011;13860;52.370;6.764;2022-08-01T16:01:15;3.90;;;1.10;;
26098;SDS011;13860;52.370;6.764;2022-08-01T16:04:22;2.72;;;1.23;;
26098;SDS011;13860;52.370;6.764;2022-08-01T16:07:30;2.30;;;1.08;;
26098;SDS011;13860;52.370;6.764;2022-08-01T16:10:55;4.00;;;0.90;;
26098;SDS011;13860;52.370;6.764;2022-08-01T16:14:01;4.55;;;1.10;;
26098;SDS011;13860;52.370;6.764;2022-08-01T16:17:09;8.27;;;1.30;;
26098;SDS011;13860;52.370;6.764;2022-08-01T16:20:19;3.40;;;0.98;;
26098;SDS011;13860;52.370;6.764;2022-08-01T16:23:24;15.25;;;1.73;;
26098;SDS011;13860;52.370;6.764;2022-08-01T16:26:30;2.88;;;1.02;;
26098;SDS011;13860;52.370;6.764;2022-08-01T16:29:38;8.20;;;1.25;;
26098;SDS011;13860;52.370;6.764;2022-08-01T16:32:43;9.32;;;1.13;;
26098;SDS011;13860;52.370;6.764;2022-08-01T16:35:59;3.93;;;1.20;;
26098;SDS011;13860;52.370;6.764;2022-08-01T16:39:05;4.93;;;0.95;;
26098;SDS011;13860;52.370;6.764;2022-08-01T16:42:10;5.70;;;1.10;;
26098;SDS011;13860;52.370;6.764;2022-08-01T16:45:15;3.88;;;0.65;;
26098;SDS011;13860;52.370;6.764;2022-08-01T16:48:21;3.05;;;0.93;;
26098;SDS011;13860;52.370;6.764;2022-08-01T16:51:30;9.82;;;1.67;;
26098;SDS011;13860;52.370;6.764;2022-08-01T16:54:38;3.28;;;1.10;;
26098;SDS011;13860;52.370;6.764;2022-08-01T16:57:44;4.03;;;1.17;;
26098;SDS011;13860;52.370;6.764;2022-08-01T17:00:49;3.40;;;1.00;;
26098;SDS011;13860;52.370;6.764;2022-08-01T17:03:57;5.15;;;1.17;;
26098;SDS011;13860;52.370;6.764;2022-08-01T17:07:05;4.68;;;1.25;;
26098;SDS011;13860;52.370;6.764;2022-08-01T17:10:13;4.35;;;1.00;;
26098;SDS011;13860;52.370;6.764;2022-08-01T17:13:18;5.63;;;1.17;;
26098;SDS011;13860;52.370;6.764;2022-08-01T17:16:24;6.22;;;1.00;;
26098;SDS011;13860;52.370;6.764;2022-08-01T17:19:29;2.53;;;1.23;;
26098;SDS011;13860;52.370;6.764;2022-08-01T17:22:36;7.40;;;1.40;;
26098;SDS011;13860;52.370;6.764;2022-08-01T17:25:43;6.30;;;1.30;;
26098;SDS011;13860;52.370;6.764;2022-08-01T17:28:49;3.72;;;0.95;;
26098;SDS011;13860;52.370;6.764;2022-08-01T17:31:55;8.07;;;1.17;;
26098;SDS011;13860;52.370;6.764;2022-08-01T17:35:02;6.93;;;1.20;;
26098;SDS011;13860;52.370;6.764;2022-08-01T17:38:11;4.63;;;0.93;;
26098;SDS011;13860;52.370;6.764;2022-08-01T17:41:17;7.85;;;1.13;;
26098;SDS011;13860;52.370;6.764;2022-08-01T17:44:22;5.47;;;1.42;;
26098;SDS011;13860;52.370;6.764;2022-08-01T17:47:28;5.03;;;1.52;;
26098;SDS011;13860;52.370;6.764;2022-08-01T17:50:51;5.00;;;0.98;;
26098;SDS011;13860;52.370;6.764;2022-08-01T17:53:59;10.35;;;1.13;;
26098;SDS011;13860;52.370;6.764;2022-08-01T17:57:05;4.18;;;1.05;;
26098;SDS011;13860;52.370;6.764;2022-08-01T18:00:11;8.57;;;1.63;;
26098;SDS011;13860;52.370;6.764;2022-08-01T18:03:17;4.50;;;1.25;;
26098;SDS011;13860;52.370;6.764;2022-08-01T18:06:31;6.38;;;1.20;;
26098;SDS011;13860;52.370;6.764;2022-08-01T18:09:40;5.55;;;1.05;;
26098;SDS011;13860;52.370;6.764;2022-08-01T18:12:46;4.10;;;1.05;;
26098;SDS011;13860;52.370;6.764;2022-08-01T18:15:52;4.53;;;1.23;;
26098;SDS011;13860;52.370;6.764;2022-08-01T18:19:00;2.38;;;0.95;;
26098;SDS011;13860;52.370;6.764;2022-08-01T18:22:05;3.80;;;1.10;;
26098;SDS011;13860;52.370;6.764;2022-08-01T18:25:33;4.05;;;1.30;;
26098;SDS011;13860;52.370;6.764;2022-08-01T18:28:38;3.97;;;0.90;;
26098;SDS011;13860;52.370;6.764;2022-08-01T18:31:47;2.30;;;0.85;;
26098;SDS011;13860;52.370;6.764;2022-08-01T18:34:52;6.05;;;1.30;;
26098;SDS011;13860;52.370;6.764;2022-08-01T18:37:59;8.43;;;1.27;;
26098;SDS011;13860;52.370;6.764;2022-08-01T18:41:07;5.43;;;1.50;;
26098;SDS011;13860;52.370;6.764;2022-08-01T18:44:14;6.82;;;1.45;;
26098;SDS011;13860;52.370;6.764;2022-08-01T18:47:19;7.53;;;1.67;;
26098;SDS011;13860;52.370;6.764;2022-08-01T18:50:27;6.15;;;1.73;;
26098;SDS011;13860;52.370;6.764;2022-08-01T18:53:32;7.80;;;1.42;;
26098;SDS011;13860;52.370;6.764;2022-08-01T18:56:40;5.65;;;1.38;;
26098;SDS011;13860;52.370;6.764;2022-08-01T18:59:46;4.40;;;1.08;;
26098;SDS011;13860;52.370;6.764;2022-08-01T19:02:52;5.30;;;1.27;;
26098;SDS011;13860;52.370;6.764;2022-08-01T19:05:57;6.93;;;1.25;;
26098;SDS011;13860;52.370;6.764;2022-08-01T19:09:02;7.78;;;1.20;;
26098;SDS011;13860;52.370;6.764;2022-08-01T19:12:10;10.98;;;1.60;;
26098;SDS011;13860;52.370;6.764;2022-08-01T19:15:15;4.55;;;1.83;;
26098;SDS011;13860;52.370;6.764;2022-08-01T19:18:20;11.68;;;1.40;;